sensor_id;sensor_type;location;lat;lon;timestamp;pressure;altitude;pressure_sealevel;temperature;humidity
40788;BME280;26497;52.494;7.546;2023-03-18T00:00:20;100118.16;;;16.91;48.03
40788;BME280;26497;52.494;7.546;2023-03-18T00:02:47;100122.94;;;16.81;48.41
40788;BME280;26497;52.494;7.546;2023-03-18T00:05:15;100114.28;;;16.74;48.99
40788;BME280;26497;52.494;7.546;2023-03-18T00:07:43;100115.38;;;16.69;49.50
40788;BME280;26497;52.494;7.546;2023-03-18T00:10:10;100117.47;;;16.59;50.36
40788;BME280;26497;52.494;7.546;2023-03-18T00:12:39;100131.84;;;16.55;50.81
40788;BME280;26497;52.494;7.546;2023-03-18T00:15:12;100123.66;;;16.34;51.28
40788;BME280;26497;52.494;7.546;2023-03-18T00:17:41;100132.56;;;16.33;51.53
40788;BME280;26497;52.494;7.546;2023-03-18T00:20:10;100135.72;;;16.44;51.69
40788;BME280;26497;52.494;7.546;2023-03-18T00:22:39;100131.16;;;16.48;51.79
40788;BME280;26497;52.494;7.546;2023-03-18T00:25:11;100132.28;;;16.41;51.41
40788;BME280;26497;52.494;7.546;2023-03-18T00:27:39;100130.41;;;16.44;51.69
40788;BME280;26497;52.494;7.546;2023-03-18T00:30:10;100130.56;;;16.65;51.31
40788;BME280;26497;52.494;7.546;2023-03-18T00:32:37;100131.59;;;16.61;51.36
40788;BME280;26497;52.494;7.546;2023-03-18T00:35:05;100131.41;;;16.67;51.27
40788;BME280;26497;52.494;7.546;2023-03-18T00:37:32;100137.09;;;16.56;51.56
40788;BME280;26497;52.494;7.546;2023-03-18T00:40:04;100137.59;;;16.68;51.28
40788;BME280;26497;52.494;7.546;2023-03-18T00:42:33;100138.00;;;16.82;50.60
40788;BME280;26497;52.494;7.546;2023-03-18T00:45:05;100147.66;;;16.85;50.77
40788;BME280;26497;52.494;7.546;2023-03-18T00:47:34;100141.84;;;16.73;51.27
40788;BME280;26497;52.494;7.546;2023-03-18T00:50:04;100138.84;;;16.57;51.50
40788;BME280;26497;52.494;7.546;2023-03-18T00:52:31;100127.84;;;16.41;52.25
40788;BME280;26497;52.494;7.546;2023-03-18T00:54:59;100126.53;;;16.55;51.65
40788;BME280;26497;52.494;7.546;2023-03-18T00:57:27;100124.88;;;16.50;51.90
40788;BME280;26497;52.494;7.546;2023-03-18T00:59:55;100117.84;;;16.48;51.95
40788;BME280;26497;52.494;7.546;2023-03-18T01:02:24;100116.72;;;16.55;52.07
40788;BME280;26497;52.494;7.546;2023-03-18T01:04:52;100125.28;;;16.38;52.38
40788;BME280;26497;52.494;7.546;2023-03-18T01:07:19;100129.59;;;16.42;52.41
40788;BME280;26497;52.494;7.546;2023-03-18T01:09:46;100133.50;;;16.30;52.58
40788;BME280;26497;52.494;7.546;2023-03-18T01:12:14;100130.13;;;16.25;52.91
40788;BME280;26497;52.494;7.546;2023-03-18T01:14:41;100133.69;;;16.24;53.05
40788;BME280;26497;52.494;7.546;2023-03-18T01:17:09;100130.38;;;16.17;53.10
40788;BME280;26497;52.494;7.546;2023-03-18T01:19:37;100123.94;;;16.25;53.09
40788;BME280;26497;52.494;7.546;2023-03-18T01:22:05;100133.41;;;16.33;52.77
40788;BME280;26497;52.494;7.546;2023-03-18T01:24:33;100133.47;;;16.32;52.54
40788;BME280;26497;52.494;7.546;2023-03-18T01:27:00;100132.69;;;16.28;52.82
40788;BME280;26497;52.494;7.546;2023-03-18T01:29:27;100129.50;;;16.17;53.38
40788;BME280;26497;52.494;7.546;2023-03-18T01:31:55;100132.13;;;16.18;53.17
40788;BME280;26497;52.494;7.546;2023-03-18T01:34:22;100124.97;;;16.20;53.14
40788;BME280;26497;52.494;7.546;2023-03-18T01:36:49;100125.69;;;16.26;53.15
40788;BME280;26497;52.494;7.546;2023-03-18T01:39:18;100135.00;;;16.39;52.67
40788;BME280;26497;52.494;7.546;2023-03-18T01:41:45;100128.06;;;16.35;52.95
40788;BME280;26497;52.494;7.546;2023-03-18T01:44:16;100120.00;;;16.36;52.83
40788;BME280;26497;52.494;7.546;2023-03-18T01:46:45;100128.34;;;16.26;53.28
40788;BME280;26497;52.494;7.546;2023-03-18T01:49:17;100126.03;;;16.15;53.54
40788;BME280;26497;52.494;7.546;2023-03-18T01:51:50;100128.44;;;16.23;53.43
40788;BME280;26497;52.494;7.546;2023-03-18T01:54:20;100126.84;;;16.17;53.74
40788;BME280;26497;52.494;7.546;2023-03-18T01:56:49;100135.59;;;16.20;53.90
40788;BME280;26497;52.494;7.546;2023-03-18T01:59:17;100137.34;;;16.21;53.93
40788;BME280;26497;52.494;7.546;2023-03-18T02:01:49;100140.41;;;16.09;54.20
40788;BME280;26497;52.494;7.546;2023-03-18T02:04:18;100127.59;;;15.94;55.14
40788;BME280;26497;52.494;7.546;2023-03-18T02:06:47;100129.34;;;15.93;54.83
40788;BME280;26497;52.494;7.546;2023-03-18T02:09:14;100130.50;;;16.13;54.45
40788;BME280;26497;52.494;7.546;2023-03-18T02:11:45;100133.28;;;16.10;54.52
40788;BME280;26497;52.494;7.546;2023-03-18T02:14:15;100135.09;;;16.09;54.37
40788;BME280;26497;52.494;7.546;2023-03-18T02:16:47;100144.50;;;16.19;54.29
40788;BME280;26497;52.494;7.546;2023-03-18T02:19:43;100138.06;;;16.27;53.85
40788;BME280;26497;52.494;7.546;2023-03-18T02:22:23;100140.03;;;16.20;54.10
40788;BME280;26497;52.494;7.546;2023-03-18T02:25:03;100131.50;;;16.10;54.50
40788;BME280;26497;52.494;7.546;2023-03-18T02:27:37;100137.09;;;16.29;54.02
40788;BME280;26497;52.494;7.546;2023-03-18T02:30:10;100139.91;;;16.25;54.10
40788;BME280;26497;52.494;7.546;2023-03-18T02:32:39;100150.06;;;16.12;54.17
40788;BME280;26497;52.494;7.546;2023-03-18T02:35:09;100142.66;;;16.21;54.18
40788;BME280;26497;52.494;7.546;2023-03-18T02:37:37;100143.41;;;16.27;54.18
40788;BME280;26497;52.494;7.546;2023-03-18T02:40:17;100146.19;;;16.22;54.44
40788;BME280;26497;52.494;7.546;2023-03-18T02:42:47;100146.69;;;16.35;53.93
40788;BME280;26497;52.494;7.546;2023-03-18T02:45:28;100146.69;;;16.35;53.93
40788;BME280;26497;52.494;7.546;2023-03-18T02:47:57;100146.19;;;16.50;53.38
40788;BME280;26497;52.494;7.546;2023-03-18T02:50:25;100155.38;;;16.40;53.49
40788;BME280;26497;52.494;7.546;2023-03-18T02:52:52;100162.84;;;16.29;54.13
40788;BME280;26497;52.494;7.546;2023-03-18T02:55:20;100159.66;;;16.17;54.73
40788;BME280;26497;52.494;7.546;2023-03-18T02:57:48;100169.56;;;16.12;55.04
40788;BME280;26497;52.494;7.546;2023-03-18T03:00:16;100166.50;;;15.96;55.61
40788;BME280;26497;52.494;7.546;2023-03-18T03:02:43;100159.34;;;15.98;55.76
40788;BME280;26497;52.494;7.546;2023-03-18T03:05:10;100170.94;;;15.96;55.94
40788;BME280;26497;52.494;7.546;2023-03-18T03:07:37;100168.38;;;15.92;56.16
40788;BME280;26497;52.494;7.546;2023-03-18T03:10:06;100170.84;;;15.99;56.08
40788;BME280;26497;52.494;7.546;2023-03-18T03:12:34;100173.88;;;16.16;55.52
40788;BME280;26497;52.494;7.546;2023-03-18T03:15:06;100169.94;;;16.00;56.01
40788;BME280;26497;52.494;7.546;2023-03-18T03:17:33;100172.31;;;16.09;55.72
40788;BME280;26497;52.494;7.546;2023-03-18T03:20:02;100171.81;;;15.96;56.36
40788;BME280;26497;52.494;7.546;2023-03-18T03:22:30;100169.03;;;16.01;56.05
40788;BME280;26497;52.494;7.546;2023-03-18T03:24:58;100165.97;;;15.83;56.91
40788;BME280;26497;52.494;7.546;2023-03-18T03:27:26;100175.69;;;15.84;56.92
40788;BME280;26497;52.494;7.546;2023-03-18T03:29:53;100172.28;;;15.79;57.05
40788;BME280;26497;52.494;7.546;2023-03-18T03:32:22;100177.22;;;15.93;56.80
40788;BME280;26497;52.494;7.546;2023-03-18T03:34:49;100171.72;;;15.99;56.68
40788;BME280;26497;52.494;7.546;2023-03-18T03:37:16;100170.88;;;15.97;56.52
40788;BME280;26497;52.494;7.546;2023-03-18T03:39:43;100173.91;;;15.85;56.79
40788;BME280;26497;52.494;7.546;2023-03-18T03:42:10;100179.59;;;15.72;57.06
40788;BME280;26497;52.494;7.546;2023-03-18T03:44:37;100185.28;;;15.58;58.14
40788;BME280;26497;52.494;7.546;2023-03-18T03:47:05;100181.59;;;15.64;58.35
40788;BME280;26497;52.494;7.546;2023-03-18T03:49:34;100185.09;;;15.66;58.63
40788;BME280;26497;52.494;7.546;2023-03-18T03:52:01;100188.84;;;15.90;57.60
40788;BME280;26497;52.494;7.546;2023-03-18T03:54:28;100188.75;;;15.94;57.71
40788;BME280;26497;52.494;7.546;2023-03-18T03:56:55;100192.13;;;15.99;57.44
40788;BME280;26497;52.494;7.546;2023-03-18T03:59:22;100190.50;;;15.93;57.71
40788;BME280;26497;52.494;7.546;2023-03-18T04:01:49;100187.75;;;15.96;57.68
40788;BME280;26497;52.494;7.546;2023-03-18T04:04:16;100194.59;;;16.05;57.42
40788;BME280;26497;52.494;7.546;2023-03-18T04:06:44;100204.72;;;16.22;56.90
40788;BME280;26497;52.494;7.546;2023-03-18T04:09:11;100201.19;;;16.21;56.86
40788;BME280;26497;52.494;7.546;2023-03-18T04:11:39;100200.09;;;16.29;56.58
40788;BME280;26497;52.494;7.546;2023-03-18T04:14:06;100198.47;;;16.23;56.96
40788;BME280;26497;52.494;7.546;2023-03-18T04:16:33;100209.00;;;16.28;56.89
40788;BME280;26497;52.494;7.546;2023-03-18T04:18:59;100207.19;;;16.28;56.96
40788;BME280;26497;52.494;7.546;2023-03-18T04:21:26;100214.31;;;16.28;57.11
40788;BME280;26497;52.494;7.546;2023-03-18T04:23:55;100212.28;;;16.36;56.73
40788;BME280;26497;52.494;7.546;2023-03-18T04:26:22;100215.84;;;16.35;56.94
40788;BME280;26497;52.494;7.546;2023-03-18T04:28:49;100217.00;;;16.26;57.30
40788;BME280;26497;52.494;7.546;2023-03-18T04:31:16;100225.16;;;16.20;57.77
40788;BME280;26497;52.494;7.546;2023-03-18T04:33:43;100225.88;;;16.27;57.64
40788;BME280;26497;52.494;7.546;2023-03-18T04:36:10;100220.59;;;16.25;57.88
40788;BME280;26497;52.494;7.546;2023-03-18T04:38:37;100224.34;;;16.18;58.17
40788;BME280;26497;52.494;7.546;2023-03-18T04:41:06;100222.59;;;16.17;58.39
40788;BME280;26497;52.494;7.546;2023-03-18T04:43:33;100213.59;;;16.21;58.16
40788;BME280;26497;52.494;7.546;2023-03-18T04:46:00;100218.19;;;16.16;58.43
40788;BME280;26497;52.494;7.546;2023-03-18T04:48:27;100225.97;;;16.24;58.41
40788;BME280;26497;52.494;7.546;2023-03-18T04:50:55;100221.38;;;16.29;58.29
40788;BME280;26497;52.494;7.546;2023-03-18T04:53:22;100232.66;;;16.37;57.94
40788;BME280;26497;52.494;7.546;2023-03-18T04:55:49;100228.25;;;16.36;57.86
40788;BME280;26497;52.494;7.546;2023-03-18T04:58:17;100238.16;;;16.31;58.02
40788;BME280;26497;52.494;7.546;2023-03-18T05:00:44;100238.97;;;16.33;58.11
40788;BME280;26497;52.494;7.546;2023-03-18T05:03:12;100244.34;;;16.31;58.24
40788;BME280;26497;52.494;7.546;2023-03-18T05:05:39;100245.63;;;16.18;58.90
40788;BME280;26497;52.494;7.546;2023-03-18T05:08:06;100241.13;;;16.20;59.04
40788;BME280;26497;52.494;7.546;2023-03-18T05:10:33;100238.97;;;16.33;58.47
40788;BME280;26497;52.494;7.546;2023-03-18T05:13:00;100238.91;;;16.34;57.98
40788;BME280;26497;52.494;7.546;2023-03-18T05:15:29;100239.47;;;16.16;58.83
40788;BME280;26497;52.494;7.546;2023-03-18T05:17:56;100244.97;;;16.11;59.00
40788;BME280;26497;52.494;7.546;2023-03-18T05:20:23;100237.16;;;16.05;59.49
40788;BME280;26497;52.494;7.546;2023-03-18T05:22:51;100235.50;;;16.01;59.76
40788;BME280;26497;52.494;7.546;2023-03-18T05:25:18;100235.94;;;15.87;60.70
40788;BME280;26497;52.494;7.546;2023-03-18T05:27:46;100228.00;;;15.84;61.14
40788;BME280;26497;52.494;7.546;2023-03-18T05:30:14;100231.94;;;15.70;62.20
40788;BME280;26497;52.494;7.546;2023-03-18T05:32:42;100232.41;;;15.85;61.80
40788;BME280;26497;52.494;7.546;2023-03-18T05:35:09;100233.13;;;15.91;61.49
40788;BME280;26497;52.494;7.546;2023-03-18T05:37:37;100235.72;;;15.93;61.45
40788;BME280;26497;52.494;7.546;2023-03-18T05:40:06;100235.06;;;15.85;62.06
40788;BME280;26497;52.494;7.546;2023-03-18T05:42:35;100242.50;;;15.72;62.83
40788;BME280;26497;52.494;7.546;2023-03-18T05:45:03;100241.16;;;15.90;62.40
40788;BME280;26497;52.494;7.546;2023-03-18T05:47:30;100237.28;;;16.00;62.06
40788;BME280;26497;52.494;7.546;2023-03-18T05:49:59;100241.38;;;16.12;61.64
40788;BME280;26497;52.494;7.546;2023-03-18T05:52:27;100251.94;;;16.15;61.54
40788;BME280;26497;52.494;7.546;2023-03-18T05:54:54;100257.38;;;16.11;61.78
40788;BME280;26497;52.494;7.546;2023-03-18T05:57:21;100249.38;;;16.11;61.94
40788;BME280;26497;52.494;7.546;2023-03-18T05:59:48;100252.84;;;16.14;61.52
40788;BME280;26497;52.494;7.546;2023-03-18T06:02:15;100251.19;;;16.10;61.61
40788;BME280;26497;52.494;7.546;2023-03-18T06:04:43;100260.31;;;16.01;61.99
40788;BME280;26497;52.494;7.546;2023-03-18T06:07:11;100262.22;;;15.96;62.39
40788;BME280;26497;52.494;7.546;2023-03-18T06:09:38;100263.06;;;15.98;62.25
40788;BME280;26497;52.494;7.546;2023-03-18T06:12:06;100279.16;;;15.94;62.56
40788;BME280;26497;52.494;7.546;2023-03-18T06:14:33;100280.28;;;15.83;62.63
40788;BME280;26497;52.494;7.546;2023-03-18T06:17:00;100284.69;;;15.84;62.74
40788;BME280;26497;52.494;7.546;2023-03-18T06:19:27;100271.75;;;16.03;62.22
40788;BME280;26497;52.494;7.546;2023-03-18T06:21:55;100274.03;;;16.17;61.78
40788;BME280;26497;52.494;7.546;2023-03-18T06:24:25;100280.22;;;16.18;61.45
40788;BME280;26497;52.494;7.546;2023-03-18T06:26:53;100284.78;;;16.13;61.49
40788;BME280;26497;52.494;7.546;2023-03-18T06:29:20;100283.66;;;16.21;61.11
40788;BME280;26497;52.494;7.546;2023-03-18T06:31:47;100287.44;;;16.14;61.25
40788;BME280;26497;52.494;7.546;2023-03-18T06:34:14;100283.41;;;16.29;60.81
40788;BME280;26497;52.494;7.546;2023-03-18T06:36:41;100297.34;;;16.39;60.46
40788;BME280;26497;52.494;7.546;2023-03-18T06:39:08;100296.97;;;16.51;60.20
40788;BME280;26497;52.494;7.546;2023-03-18T06:41:36;100295.13;;;16.54;59.93
40788;BME280;26497;52.494;7.546;2023-03-18T06:44:04;100294.88;;;16.61;59.76
40788;BME280;26497;52.494;7.546;2023-03-18T06:46:31;100290.00;;;16.74;59.21
40788;BME280;26497;52.494;7.546;2023-03-18T06:49:00;100300.72;;;16.73;59.11
40788;BME280;26497;52.494;7.546;2023-03-18T06:51:27;100308.91;;;16.66;59.33
40788;BME280;26497;52.494;7.546;2023-03-18T06:53:54;100313.84;;;16.50;59.94
40788;BME280;26497;52.494;7.546;2023-03-18T06:56:21;100311.41;;;16.43;59.92
40788;BME280;26497;52.494;7.546;2023-03-18T06:58:49;100316.88;;;16.38;60.26
40788;BME280;26497;52.494;7.546;2023-03-18T07:01:17;100310.47;;;16.45;59.79
40788;BME280;26497;52.494;7.546;2023-03-18T07:03:44;100319.09;;;16.54;nan
40788;BME280;26497;52.494;7.546;2023-03-18T07:06:11;100321.69;;;16.55;59.43
40788;BME280;26497;52.494;7.546;2023-03-18T07:08:38;100325.72;;;16.69;59.10
40788;BME280;26497;52.494;7.546;2023-03-18T07:11:05;100330.22;;;16.66;59.16
40788;BME280;26497;52.494;7.546;2023-03-18T07:13:32;100335.28;;;16.74;58.95
40788;BME280;26497;52.494;7.546;2023-03-18T07:16:01;100331.31;;;16.88;58.96
40788;BME280;26497;52.494;7.546;2023-03-18T07:18:29;100338.63;;;17.11;58.29
40788;BME280;26497;52.494;7.546;2023-03-18T07:20:56;100335.38;;;17.28;57.63
40788;BME280;26497;52.494;7.546;2023-03-18T07:23:23;100350.06;;;17.40;57.07
40788;BME280;26497;52.494;7.546;2023-03-18T07:25:51;100340.72;;;17.28;56.97
40788;BME280;26497;52.494;7.546;2023-03-18T07:28:18;100350.03;;;17.42;56.74
40788;BME280;26497;52.494;7.546;2023-03-18T07:30:44;100358.06;;;17.40;56.82
40788;BME280;26497;52.494;7.546;2023-03-18T07:33:13;100365.09;;;17.43;57.04
40788;BME280;26497;52.494;7.546;2023-03-18T07:35:40;100359.81;;;17.41;57.00
40788;BME280;26497;52.494;7.546;2023-03-18T07:38:08;100369.94;;;17.30;57.59
40788;BME280;26497;52.494;7.546;2023-03-18T07:40:36;100364.47;;;17.34;57.97
40788;BME280;26497;52.494;7.546;2023-03-18T07:43:03;100369.13;;;17.28;58.62
40788;BME280;26497;52.494;7.546;2023-03-18T07:45:31;100367.28;;;17.03;59.64
40788;BME280;26497;52.494;7.546;2023-03-18T07:47:59;100361.59;;;16.85;61.27
40788;BME280;26497;52.494;7.546;2023-03-18T07:50:27;100359.88;;;16.83;61.90
40788;BME280;26497;52.494;7.546;2023-03-18T07:52:54;100357.50;;;17.03;62.23
40788;BME280;26497;52.494;7.546;2023-03-18T07:55:21;100354.13;;;17.25;62.62
40788;BME280;26497;52.494;7.546;2023-03-18T07:57:49;100366.97;;;17.39;62.63
40788;BME280;26497;52.494;7.546;2023-03-18T08:00:17;100365.72;;;17.51;62.56
40788;BME280;26497;52.494;7.546;2023-03-18T08:02:45;100364.78;;;17.52;62.31
40788;BME280;26497;52.494;7.546;2023-03-18T08:05:12;100370.72;;;17.60;62.41
40788;BME280;26497;52.494;7.546;2023-03-18T08:07:41;100378.44;;;17.93;61.36
40788;BME280;26497;52.494;7.546;2023-03-18T08:10:10;100367.50;;;18.26;60.60
40788;BME280;26497;52.494;7.546;2023-03-18T08:12:39;100372.81;;;18.28;59.21
40788;BME280;26497;52.494;7.546;2023-03-18T08:15:08;100375.84;;;18.42;59.41
40788;BME280;26497;52.494;7.546;2023-03-18T08:17:36;100368.75;;;18.41;58.89
40788;BME280;26497;52.494;7.546;2023-03-18T08:20:04;100371.88;;;18.29;58.47
40788;BME280;26497;52.494;7.546;2023-03-18T08:22:31;100376.91;;;18.13;58.86
40788;BME280;26497;52.494;7.546;2023-03-18T08:25:00;100374.31;;;18.35;58.75
40788;BME280;26497;52.494;7.546;2023-03-18T08:27:26;100385.72;;;18.40;57.54
40788;BME280;26497;52.494;7.546;2023-03-18T08:29:53;100389.78;;;18.51;58.39
40788;BME280;26497;52.494;7.546;2023-03-18T08:32:20;100393.97;;;18.80;57.48
40788;BME280;26497;52.494;7.546;2023-03-18T08:34:47;100399.56;;;18.74;57.32
40788;BME280;26497;52.494;7.546;2023-03-18T08:37:14;100400.00;;;18.85;57.34
40788;BME280;26497;52.494;7.546;2023-03-18T08:39:41;100404.34;;;18.88;57.03
40788;BME280;26497;52.494;7.546;2023-03-18T08:42:11;100396.09;;;18.94;56.75
40788;BME280;26497;52.494;7.546;2023-03-18T08:44:38;100405.09;;;19.15;56.50
40788;BME280;26497;52.494;7.546;2023-03-18T08:47:06;100399.47;;;19.22;55.89
40788;BME280;26497;52.494;7.546;2023-03-18T08:49:34;100408.19;;;19.27;56.10
40788;BME280;26497;52.494;7.546;2023-03-18T08:52:01;100409.81;;;19.31;55.79
40788;BME280;26497;52.494;7.546;2023-03-18T08:54:28;100417.34;;;18.99;55.96
40788;BME280;26497;52.494;7.546;2023-03-18T08:56:56;100414.78;;;18.94;56.67
40788;BME280;26497;52.494;7.546;2023-03-18T08:59:26;100423.47;;;18.77;56.91
40788;BME280;26497;52.494;7.546;2023-03-18T09:01:53;100419.13;;;18.98;56.82
40788;BME280;26497;52.494;7.546;2023-03-18T09:04:20;100430.91;;;19.17;56.37
40788;BME280;26497;52.494;7.546;2023-03-18T09:06:49;100423.25;;;19.29;56.12
40788;BME280;26497;52.494;7.546;2023-03-18T09:09:16;100418.50;;;19.36;55.81
40788;BME280;26497;52.494;7.546;2023-03-18T09:11:43;100429.84;;;19.43;55.59
40788;BME280;26497;52.494;7.546;2023-03-18T09:14:12;100433.91;;;19.52;55.11
40788;BME280;26497;52.494;7.546;2023-03-18T09:16:41;100426.06;;;19.69;54.35
40788;BME280;26497;52.494;7.546;2023-03-18T09:19:08;100429.72;;;19.46;55.00
40788;BME280;26497;52.494;7.546;2023-03-18T09:21:35;100429.88;;;19.64;54.67
40788;BME280;26497;52.494;7.546;2023-03-18T09:24:02;100421.66;;;19.68;54.32
40788;BME280;26497;52.494;7.546;2023-03-18T09:26:29;100428.09;;;19.85;53.97
40788;BME280;26497;52.494;7.546;2023-03-18T09:28:56;100427.38;;;19.81;54.07
40788;BME280;26497;52.494;7.546;2023-03-18T09:31:23;100435.88;;;20.12;53.61
40788;BME280;26497;52.494;7.546;2023-03-18T09:33:53;100436.81;;;20.11;53.10
40788;BME280;26497;52.494;7.546;2023-03-18T09:36:20;100434.16;;;20.51;51.92
40788;BME280;26497;52.494;7.546;2023-03-18T09:38:47;100439.34;;;20.35;52.13
40788;BME280;26497;52.494;7.546;2023-03-18T09:41:27;100444.50;;;20.18;52.85
40788;BME280;26497;52.494;7.546;2023-03-18T09:44:10;100442.84;;;20.37;52.93
40788;BME280;26497;52.494;7.546;2023-03-18T09:46:54;100436.78;;;20.52;52.22
40788;BME280;26497;52.494;7.546;2023-03-18T09:49:47;100446.09;;;21.21;51.61
40788;BME280;26497;52.494;7.546;2023-03-18T09:52:23;100439.41;;;22.20;49.01
40788;BME280;26497;52.494;7.546;2023-03-18T09:54:57;100441.75;;;22.26;47.47
40788;BME280;26497;52.494;7.546;2023-03-18T09:57:31;100438.75;;;22.50;46.84
40788;BME280;26497;52.494;7.546;2023-03-18T10:00:05;100436.69;;;22.55;46.18
40788;BME280;26497;52.494;7.546;2023-03-18T10:02:38;100451.00;;;22.72;46.62
40788;BME280;26497;52.494;7.546;2023-03-18T10:05:12;100447.31;;;22.90;45.02
40788;BME280;26497;52.494;7.546;2023-03-18T10:07:42;100448.19;;;23.55;43.86
40788;BME280;26497;52.494;7.546;2023-03-18T10:10:21;100442.44;;;24.66;42.13
40788;BME280;26497;52.494;7.546;2023-03-18T10:12:54;100437.25;;;24.63;41.51
40788;BME280;26497;52.494;7.546;2023-03-18T10:15:30;100448.00;;;25.48;39.26
40788;BME280;26497;52.494;7.546;2023-03-18T10:18:04;100452.31;;;26.31;37.35
40788;BME280;26497;52.494;7.546;2023-03-18T10:20:50;100450.03;;;26.25;37.71
40788;BME280;26497;52.494;7.546;2023-03-18T10:23:29;100458.44;;;26.72;35.43
40788;BME280;26497;52.494;7.546;2023-03-18T10:26:03;100452.56;;;26.91;35.09
40788;BME280;26497;52.494;7.546;2023-03-18T10:28:48;100464.00;;;25.51;36.92
40788;BME280;26497;52.494;7.546;2023-03-18T10:31:26;100463.78;;;25.95;37.50
40788;BME280;26497;52.494;7.546;2023-03-18T10:33:59;100464.97;;;25.50;37.22
40788;BME280;26497;52.494;7.546;2023-03-18T10:36:36;100463.06;;;25.65;36.31
40788;BME280;26497;52.494;7.546;2023-03-18T10:39:12;100459.47;;;26.05;35.90
40788;BME280;26497;52.494;7.546;2023-03-18T10:41:40;100455.09;;;26.30;35.26
40788;BME280;26497;52.494;7.546;2023-03-18T10:44:17;100460.84;;;26.25;35.38
40788;BME280;26497;52.494;7.546;2023-03-18T10:46:46;100461.88;;;26.61;35.55
40788;BME280;26497;52.494;7.546;2023-03-18T10:49:16;100462.97;;;26.72;34.38
40788;BME280;26497;52.494;7.546;2023-03-18T10:51:52;100463.22;;;26.17;34.83
40788;BME280;26497;52.494;7.546;2023-03-18T10:54:25;100458.69;;;25.90;35.54
40788;BME280;26497;52.494;7.546;2023-03-18T10:56:53;100463.06;;;26.05;35.81
40788;BME280;26497;52.494;7.546;2023-03-18T11:01:57;100462.25;;;25.90;35.27
40788;BME280;26497;52.494;7.546;2023-03-18T11:04:27;100463.81;;;25.12;36.37
40788;BME280;26497;52.494;7.546;2023-03-18T11:06:59;100471.44;;;24.48;37.90
40788;BME280;26497;52.494;7.546;2023-03-18T11:09:31;100469.06;;;23.66;39.24
40788;BME280;26497;52.494;7.546;2023-03-18T11:12:03;100473.41;;;23.68;39.81
40788;BME280;26497;52.494;7.546;2023-03-18T11:14:31;100477.44;;;23.29;40.11
40788;BME280;26497;52.494;7.546;2023-03-18T11:17:01;100468.75;;;23.40;40.13
40788;BME280;26497;52.494;7.546;2023-03-18T11:19:31;100468.66;;;22.93;40.45
40788;BME280;26497;52.494;7.546;2023-03-18T11:22:18;100470.50;;;23.25;40.35
40788;BME280;26497;52.494;7.546;2023-03-18T11:25:10;100477.88;;;23.37;40.27
40788;BME280;26497;52.494;7.546;2023-03-18T11:27:41;100473.59;;;23.49;39.75
40788;BME280;26497;52.494;7.546;2023-03-18T11:30:17;100482.19;;;23.08;40.07
40788;BME280;26497;52.494;7.546;2023-03-18T11:32:54;100480.91;;;23.15;40.57
40788;BME280;26497;52.494;7.546;2023-03-18T11:35:31;100476.19;;;23.67;39.91
40788;BME280;26497;52.494;7.546;2023-03-18T11:38:03;100467.19;;;24.72;37.25
40788;BME280;26497;52.494;7.546;2023-03-18T11:40:32;100457.44;;;25.13;36.59
40788;BME280;26497;52.494;7.546;2023-03-18T11:43:02;100465.06;;;24.92;36.63
40788;BME280;26497;52.494;7.546;2023-03-18T11:45:42;100461.56;;;25.19;35.93
40788;BME280;26497;52.494;7.546;2023-03-18T11:48:16;100455.59;;;25.41;35.94
40788;BME280;26497;52.494;7.546;2023-03-18T11:51:12;100454.75;;;25.41;36.07
40788;BME280;26497;52.494;7.546;2023-03-18T11:54:03;100458.50;;;25.11;36.11
40788;BME280;26497;52.494;7.546;2023-03-18T11:56:40;100460.44;;;24.51;36.91
40788;BME280;26497;52.494;7.546;2023-03-18T11:59:29;100458.53;;;25.24;36.90
40788;BME280;26497;52.494;7.546;2023-03-18T12:05:12;100450.56;;;26.17;33.66
40788;BME280;26497;52.494;7.546;2023-03-18T12:07:56;100451.63;;;26.28;34.05
40788;BME280;26497;52.494;7.546;2023-03-18T12:10:32;100449.09;;;25.99;34.32
40788;BME280;26497;52.494;7.546;2023-03-18T12:13:13;100442.06;;;25.28;34.72
40788;BME280;26497;52.494;7.546;2023-03-18T12:15:49;100443.28;;;23.92;36.93
40788;BME280;26497;52.494;7.546;2023-03-18T12:18:38;100446.16;;;24.05;37.10
40788;BME280;26497;52.494;7.546;2023-03-18T12:24:33;100440.50;;;24.68;36.24
40788;BME280;26497;52.494;7.546;2023-03-18T12:27:14;100436.19;;;24.80;36.15
40788;BME280;26497;52.494;7.546;2023-03-18T12:29:59;100438.06;;;25.34;35.50
40788;BME280;26497;52.494;7.546;2023-03-18T12:32:32;100435.94;;;25.39;34.28
40788;BME280;26497;52.494;7.546;2023-03-18T12:35:39;100425.19;;;24.97;35.07
40788;BME280;26497;52.494;7.546;2023-03-18T12:41:34;100422.78;;;25.35;35.32
40788;BME280;26497;52.494;7.546;2023-03-18T12:44:21;100426.19;;;26.56;33.23
40788;BME280;26497;52.494;7.546;2023-03-18T12:46:57;100425.50;;;27.04;32.86
40788;BME280;26497;52.494;7.546;2023-03-18T12:49:31;100422.59;;;26.82;31.38
40788;BME280;26497;52.494;7.546;2023-03-18T12:52:03;100423.09;;;27.13;31.35
40788;BME280;26497;52.494;7.546;2023-03-18T12:54:35;100422.84;;;27.40;31.12
40788;BME280;26497;52.494;7.546;2023-03-18T12:57:09;100423.84;;;27.39;29.57
40788;BME280;26497;52.494;7.546;2023-03-18T12:59:42;100431.09;;;27.14;30.63
40788;BME280;26497;52.494;7.546;2023-03-18T13:02:25;100425.78;;;26.11;33.11
40788;BME280;26497;52.494;7.546;2023-03-18T13:05:00;100420.81;;;26.04;32.94
40788;BME280;26497;52.494;7.546;2023-03-18T13:07:39;100409.09;;;26.82;32.34
40788;BME280;26497;52.494;7.546;2023-03-18T13:10:18;100417.06;;;27.58;30.56
40788;BME280;26497;52.494;7.546;2023-03-18T13:12:48;100415.25;;;27.70;30.69
40788;BME280;26497;52.494;7.546;2023-03-18T13:15:27;100410.47;;;27.73;30.33
40788;BME280;26497;52.494;7.546;2023-03-18T13:17:59;100412.72;;;27.91;30.10